createdAt,value
2023-02-24T00:02:00.037Z,100430.56
2023-02-24T00:04:30.086Z,100443.41
2023-02-24T00:06:58.240Z,100438.47
2023-02-24T00:09:28.153Z,100441.25
2023-02-24T00:11:58.328Z,100436.75
2023-02-24T00:14:30.342Z,100432.25
2023-02-24T00:17:00.192Z,100427.38
2023-02-24T00:19:32.620Z,100421.69
2023-02-24T00:22:01.894Z,100427.91
2023-02-24T00:24:30.066Z,100425.75
2023-02-24T00:27:00.982Z,100422.47
2023-02-24T00:29:30.592Z,100421.69
2023-02-24T00:32:06.740Z,100422.91
2023-02-24T00:34:37.631Z,100412.38
2023-02-24T00:37:07.210Z,100415.78
2023-02-24T00:39:37.020Z,100424.66
2023-02-24T00:42:07.250Z,100414.41
2023-02-24T00:44:38.374Z,100425.22
2023-02-24T00:47:10.321Z,100429.34
2023-02-24T00:49:42.142Z,100418.25
2023-02-24T00:52:13.655Z,100421.28
2023-02-24T00:54:42.125Z,100421.69
2023-02-24T00:57:10.973Z,100412.91
2023-02-24T00:59:39.573Z,100415.47
2023-02-24T01:02:11.404Z,100412.69
2023-02-24T01:04:40.095Z,100399.44
2023-02-24T01:07:10.863Z,100403.09
2023-02-24T01:09:41.966Z,100399.72
2023-02-24T01:12:29.704Z,100398.88
2023-02-24T01:14:58.103Z,100405.00
2023-02-24T01:17:27.623Z,100399.38
2023-02-24T01:20:00.314Z,100391.63
2023-02-24T01:22:28.825Z,100393.31
2023-02-24T01:24:57.031Z,100386.78
2023-02-24T01:27:25.179Z,100386.63
2023-02-24T01:29:53.593Z,100384.78
2023-02-24T01:32:24.129Z,100380.13
2023-02-24T01:34:54.114Z,100372.22
2023-02-24T01:37:23.425Z,100373.19
2023-02-24T01:39:52.220Z,100366.66
2023-02-24T01:42:22.024Z,100363.38
2023-02-24T01:45:18.027Z,100351.59
2023-02-24T01:47:48.321Z,100351.94
2023-02-24T01:50:21.983Z,100345.38
2023-02-24T01:52:52.820Z,100344.19
2023-02-24T01:55:25.178Z,100337.78
2023-02-24T01:57:55.298Z,100330.38
2023-02-24T02:00:32.767Z,100328.94
2023-02-24T02:03:08.135Z,100319.19
2023-02-24T02:05:39.131Z,100309.72
2023-02-24T02:08:09.722Z,100316.44
2023-02-24T02:10:44.147Z,100305.19
2023-02-24T02:13:16.016Z,100304.34
2023-02-24T02:15:56.806Z,100298.41
2023-02-24T02:18:34.964Z,100294.56
2023-02-24T02:21:27.462Z,100293.16
2023-02-24T02:24:05.299Z,100292.53
2023-02-24T02:27:15.018Z,100289.97
2023-02-24T02:30:24.347Z,100287.28
2023-02-24T02:33:21.519Z,100276.53
2023-02-24T02:36:00.654Z,100276.13
2023-02-24T02:38:37.139Z,100273.44
2023-02-24T02:41:14.871Z,100279.16
2023-02-24T02:43:50.388Z,100273.88
2023-02-24T02:46:34.718Z,100269.41
2023-02-24T02:49:12.913Z,100261.38
2023-02-24T02:51:51.667Z,100260.63
2023-02-24T02:54:28.144Z,100260.72
2023-02-24T02:57:03.074Z,100269.78
2023-02-24T02:59:33.411Z,100270.78
2023-02-24T03:02:14.815Z,100275.69
2023-02-24T03:04:51.211Z,100273.50
2023-02-24T03:07:23.802Z,100272.06
2023-02-24T03:09:57.859Z,100273.09
2023-02-24T03:12:30.714Z,100269.81
2023-02-24T03:15:04.952Z,100264.16
2023-02-24T03:17:42.414Z,100258.91
2023-02-24T03:20:17.614Z,100264.66
2023-02-24T03:22:54.211Z,100268.94
2023-02-24T03:25:30.810Z,100264.06
2023-02-24T03:28:05.744Z,100271.94
2023-02-24T03:30:44.143Z,100267.06
2023-02-24T03:33:21.051Z,100264.16
2023-02-24T03:35:51.490Z,100270.63
2023-02-24T03:38:24.454Z,100264.75
2023-02-24T03:40:53.408Z,100275.00
2023-02-24T03:43:30.494Z,100260.56
2023-02-24T03:46:02.389Z,100263.19
2023-02-24T03:48:34.034Z,100262.13
2023-02-24T03:51:04.103Z,100253.28
2023-02-24T03:54:05.677Z,100258.31
2023-02-24T03:56:47.200Z,100263.41
2023-02-24T03:59:28.774Z,100253.50
2023-02-24T04:02:04.988Z,100261.66
2023-02-24T04:04:46.970Z,100256.75
2023-02-24T04:07:36.439Z,100247.13
2023-02-24T04:10:10.530Z,100254.13
2023-02-24T04:12:48.375Z,100235.81
2023-02-24T04:15:23.656Z,100230.72
2023-02-24T04:17:57.652Z,100241.41
2023-02-24T04:20:33.655Z,100234.13
2023-02-24T04:23:08.706Z,100233.69
2023-02-24T04:25:41.747Z,100226.03
2023-02-24T04:28:11.660Z,100238.25
2023-02-24T04:30:49.309Z,100222.41
2023-02-24T04:33:19.448Z,100219.22
2023-02-24T04:35:51.165Z,100216.59
2023-02-24T04:38:21.062Z,100219.28
2023-02-24T04:40:51.607Z,100217.38
2023-02-24T04:43:20.009Z,100211.91
2023-02-24T04:45:48.164Z,100214.03
2023-02-24T04:48:16.373Z,100216.66
2023-02-24T04:50:45.318Z,100216.41
2023-02-24T04:53:15.591Z,100220.72
2023-02-24T04:55:48.764Z,100210.09
2023-02-24T04:58:20.516Z,100201.75
2023-02-24T05:00:52.585Z,100207.47
2023-02-24T05:03:23.245Z,100211.06
2023-02-24T05:05:56.701Z,100203.38
2023-02-24T05:08:26.064Z,100206.47
2023-02-24T05:10:54.575Z,100197.88
2023-02-24T05:13:27.236Z,100194.38
2023-02-24T05:15:57.308Z,100202.25
2023-02-24T05:18:26.354Z,100204.84
2023-02-24T05:21:15.208Z,100197.31
2023-02-24T05:23:45.416Z,100191.53
2023-02-24T05:26:16.878Z,100189.00
2023-02-24T05:28:52.285Z,100192.41
2023-02-24T05:31:23.803Z,100189.69
2023-02-24T05:33:55.559Z,100190.59
2023-02-24T05:36:24.484Z,100180.97
2023-02-24T05:38:57.962Z,100179.22
2023-02-24T05:41:32.532Z,100188.28
2023-02-24T05:44:04.742Z,100172.88
2023-02-24T05:46:35.070Z,100171.09
2023-02-24T05:49:09.115Z,100164.03
2023-02-24T05:51:43.237Z,100164.63
2023-02-24T05:54:14.864Z,100161.41
2023-02-24T05:56:43.836Z,100158.88
2023-02-24T05:59:18.240Z,100161.28
2023-02-24T06:01:46.550Z,100160.75
2023-02-24T06:04:21.012Z,100156.72
2023-02-24T06:06:52.465Z,100147.91
2023-02-24T06:09:23.315Z,100146.00
2023-02-24T06:11:51.806Z,100147.44
2023-02-24T06:14:22.304Z,100136.53
2023-02-24T06:16:51.245Z,100144.88
2023-02-24T06:19:20.662Z,100142.56
2023-02-24T06:21:48.910Z,100137.44
2023-02-24T06:24:18.558Z,100130.44
2023-02-24T06:26:49.267Z,100135.09
2023-02-24T06:29:19.199Z,100134.75
2023-02-24T06:31:50.045Z,100123.53
2023-02-24T06:34:19.208Z,100131.16
2023-02-24T06:36:49.037Z,100128.72
2023-02-24T06:39:17.201Z,100122.13
2023-02-24T06:41:45.444Z,100120.44
2023-02-24T06:44:13.712Z,100119.13
2023-02-24T06:46:42.184Z,100117.03
2023-02-24T06:49:12.664Z,100116.28
2023-02-24T06:51:41.215Z,100110.41
2023-02-24T06:54:09.911Z,100110.81
2023-02-24T06:56:39.073Z,100105.50
2023-02-24T06:59:11.866Z,100105.34
2023-02-24T07:01:45.485Z,100110.56
2023-02-24T07:04:20.288Z,100106.53
2023-02-24T07:06:52.385Z,100093.97
2023-02-24T07:09:22.444Z,100100.66
2023-02-24T07:11:52.940Z,100102.09
2023-02-24T07:14:22.756Z,100092.19
2023-02-24T07:16:55.102Z,100096.97
2023-02-24T07:19:29.140Z,100085.56
2023-02-24T07:22:00.510Z,100091.25
2023-02-24T07:24:35.816Z,100075.19
2023-02-24T07:27:06.088Z,100074.00
2023-02-24T07:29:35.439Z,100074.72
2023-02-24T07:32:06.063Z,100067.75
2023-02-24T07:34:39.918Z,100061.00
2023-02-24T07:37:09.721Z,100063.38
2023-02-24T07:39:39.535Z,100056.22
2023-02-24T07:42:09.901Z,100057.00
2023-02-24T07:44:46.809Z,100054.81
2023-02-24T07:47:16.008Z,100052.34
2023-02-24T07:49:46.060Z,100043.91
2023-02-24T07:52:14.370Z,100046.75
2023-02-24T07:54:43.200Z,100038.75
2023-02-24T07:57:13.950Z,100026.19
2023-02-24T07:59:47.085Z,100029.41
2023-02-24T08:02:16.829Z,100034.59
2023-02-24T08:04:50.525Z,100019.66
2023-02-24T08:07:24.324Z,100019.00
2023-02-24T08:10:14.122Z,100017.22
2023-02-24T08:12:47.586Z,100016.25
2023-02-24T08:15:24.016Z,100011.94
2023-02-24T08:17:56.235Z,100012.63
2023-02-24T08:20:29.691Z,99996.44
2023-02-24T08:22:57.995Z,99994.72
2023-02-24T08:25:35.598Z,99993.09
2023-02-24T08:28:09.030Z,99984.94
2023-02-24T08:30:40.628Z,99993.19
2023-02-24T08:33:11.066Z,99977.44
2023-02-24T08:35:44.698Z,99979.91
2023-02-24T08:38:15.367Z,99974.16
2023-02-24T08:40:52.131Z,99978.84
2023-02-24T08:43:32.702Z,99975.66
2023-02-24T08:46:05.785Z,99971.75
2023-02-24T08:48:40.269Z,99968.34
2023-02-24T08:51:15.132Z,99959.63
2023-02-24T08:53:44.663Z,99959.69
2023-02-24T08:56:23.911Z,99956.06
2023-02-24T08:58:57.462Z,99943.66
2023-02-24T09:01:34.404Z,99954.03
2023-02-24T09:04:05.528Z,99939.25
2023-02-24T09:06:43.953Z,99936.41
2023-02-24T09:09:19.093Z,99939.56
2023-02-24T09:11:49.474Z,99932.88
2023-02-24T09:14:27.063Z,99924.88
2023-02-24T09:17:03.692Z,99922.06
2023-02-24T09:20:02.317Z,99910.78
2023-02-24T09:22:33.137Z,99898.31
2023-02-24T09:25:21.473Z,99905.72
2023-02-24T09:27:55.036Z,99896.47
2023-02-24T09:30:38.731Z,99892.22
2023-02-24T09:33:17.704Z,99884.34
2023-02-24T09:35:47.851Z,99873.50
2023-02-24T09:38:20.030Z,99881.22
2023-02-24T09:40:49.898Z,99870.25
2023-02-24T09:43:21.700Z,99873.63
2023-02-24T09:46:01.820Z,99867.59
2023-02-24T09:48:43.906Z,99855.50
2023-02-24T09:51:21.748Z,99865.16
2023-02-24T09:53:56.584Z,99856.78
2023-02-24T09:56:37.172Z,99863.75
2023-02-24T09:59:14.657Z,99864.38
2023-02-24T10:01:54.632Z,99861.75
2023-02-24T10:04:54.008Z,99855.72
2023-02-24T10:07:28.821Z,99860.03
2023-02-24T10:10:19.456Z,99843.56
2023-02-24T10:12:53.488Z,99845.56
2023-02-24T10:15:56.962Z,99849.53
2023-02-24T10:18:33.734Z,99839.84
2023-02-24T10:21:15.590Z,99841.44
2023-02-24T10:23:59.590Z,99839.75
2023-02-24T10:26:51.220Z,99825.38
2023-02-24T10:29:38.928Z,99827.69
2023-02-24T10:32:23.648Z,99819.44
2023-02-24T10:34:53.022Z,99820.59
2023-02-24T10:37:28.570Z,99818.06
2023-02-24T10:39:59.887Z,99811.88
2023-02-24T10:42:32.793Z,99811.69
2023-02-24T10:45:18.865Z,99809.44
2023-02-24T10:47:56.699Z,99803.09
2023-02-24T10:50:27.618Z,99789.34
2023-02-24T10:53:26.693Z,99789.72
2023-02-24T10:56:15.260Z,99784.19
2023-02-24T10:58:56.881Z,99774.66
2023-02-24T11:01:40.780Z,99765.63
2023-02-24T11:04:22.896Z,99770.59
2023-02-24T11:06:55.705Z,99755.09
2023-02-24T11:09:35.380Z,99750.94
2023-02-24T11:12:25.324Z,99741.00
2023-02-24T11:15:15.241Z,99736.44
2023-02-24T11:17:51.879Z,99727.09
2023-02-24T11:20:39.185Z,99726.75
2023-02-24T11:23:18.888Z,99717.84
2023-02-24T11:25:50.186Z,99711.31
2023-02-24T11:28:30.957Z,99712.00
2023-02-24T11:31:12.236Z,99694.78
2023-02-24T11:33:47.399Z,99690.94
2023-02-24T11:36:25.185Z,99687.28
2023-02-24T11:39:17.739Z,99677.00
2023-02-24T11:41:55.404Z,99671.84
2023-02-24T11:44:28.281Z,99669.97
2023-02-24T11:47:04.088Z,99664.28
2023-02-24T11:49:38.932Z,99659.81
2023-02-24T11:52:14.994Z,99667.84
2023-02-24T11:54:49.792Z,99663.72
2023-02-24T11:57:22.944Z,99666.88
2023-02-24T11:59:58.791Z,99675.69
2023-02-24T12:02:38.661Z,99679.41
2023-02-24T12:05:13.921Z,99685.78
2023-02-24T12:07:45.425Z,99682.53
2023-02-24T12:10:21.332Z,99687.81
2023-02-24T12:12:58.646Z,99671.69
2023-02-24T12:15:32.049Z,99663.97
2023-02-24T12:18:07.720Z,99645.53
2023-02-24T12:20:42.489Z,99637.28
2023-02-24T12:23:18.037Z,99628.88
2023-02-24T12:26:07.003Z,99622.84
2023-02-24T12:28:58.707Z,99617.66
2023-02-24T12:31:37.557Z,99621.28
2023-02-24T12:34:14.478Z,99601.44
2023-02-24T12:36:56.852Z,99600.63
2023-02-24T12:39:31.758Z,99592.41
2023-02-24T12:42:11.167Z,99590.22
2023-02-24T12:44:45.338Z,99588.59
2023-02-24T12:47:16.537Z,99578.31
2023-02-24T12:50:06.872Z,99575.59
2023-02-24T12:52:46.862Z,99566.59
2023-02-24T12:55:21.788Z,99559.25
2023-02-24T12:57:59.491Z,99556.50
2023-02-24T13:00:34.449Z,99549.97
2023-02-24T13:03:18.480Z,99541.91
2023-02-24T13:05:54.130Z,99538.59
2023-02-24T13:08:29.045Z,99536.03
2023-02-24T13:11:09.881Z,99534.56
2023-02-24T13:13:44.845Z,99527.63
2023-02-24T13:16:13.658Z,99521.22
2023-02-24T13:18:42.683Z,99515.78
2023-02-24T13:21:22.650Z,99510.06
2023-02-24T13:23:58.120Z,99506.84
2023-02-24T13:26:29.372Z,99503.72
2023-02-24T13:29:03.214Z,99496.97
2023-02-24T13:31:43.332Z,99493.84
2023-02-24T13:34:30.257Z,99493.06
2023-02-24T13:37:00.183Z,99478.81
2023-02-24T13:39:35.250Z,99476.97
2023-02-24T13:42:06.788Z,99471.28
2023-02-24T13:44:35.242Z,99465.22
2023-02-24T13:47:35.690Z,99458.72
2023-02-24T13:50:19.738Z,99465.03
2023-02-24T13:53:01.784Z,99451.63
2023-02-24T13:55:47.156Z,99443.16
2023-02-24T13:58:37.985Z,99434.53
2023-02-24T14:01:11.181Z,99436.38
2023-02-24T14:03:42.208Z,99426.72
2023-02-24T14:06:18.401Z,99423.88
2023-02-24T14:08:54.166Z,99424.28
2023-02-24T14:11:26.941Z,99424.72
2023-02-24T14:13:57.099Z,99418.81
2023-02-24T14:16:28.570Z,99415.16
2023-02-24T14:18:58.552Z,99421.28
2023-02-24T14:21:32.214Z,99417.63
2023-02-24T14:24:05.222Z,99410.34
2023-02-24T14:26:44.077Z,99411.09
2023-02-24T14:29:16.484Z,99406.63
2023-02-24T14:31:48.972Z,99409.41
2023-02-24T14:34:20.713Z,99398.00
2023-02-24T14:36:52.004Z,99400.06
2023-02-24T14:39:23.983Z,99390.88
2023-02-24T14:42:05.963Z,99388.56
2023-02-24T14:44:35.705Z,99390.75
2023-02-24T14:47:06.522Z,99385.84
2023-02-24T14:49:36.565Z,99381.50
2023-02-24T14:52:08.779Z,99382.91
2023-02-24T14:54:44.830Z,99380.19
2023-02-24T14:57:14.246Z,99383.06
2023-02-24T14:59:47.344Z,99373.94
2023-02-24T15:02:19.861Z,99371.44
2023-02-24T15:04:49.179Z,99367.59
2023-02-24T15:07:20.891Z,99365.59
2023-02-24T15:09:52.696Z,99354.19
2023-02-24T15:12:24.293Z,99348.25
2023-02-24T15:14:56.288Z,99350.00
2023-02-24T15:17:25.350Z,99351.69
2023-02-24T15:19:55.554Z,99343.47
2023-02-24T15:22:27.818Z,99341.78
2023-02-24T15:25:17.335Z,99332.91
2023-02-24T15:27:52.006Z,99327.16
2023-02-24T15:30:30.416Z,99319.00
2023-02-24T15:33:05.543Z,99319.59
2023-02-24T15:35:35.556Z,99319.59
2023-02-24T15:38:03.850Z,99309.66
2023-02-24T15:40:33.488Z,99313.06
2023-02-24T15:43:10.530Z,99303.84
2023-02-24T15:45:41.020Z,99288.28
2023-02-24T15:48:22.084Z,99292.66
2023-02-24T15:50:51.272Z,99292.44
2023-02-24T15:53:19.796Z,99285.56
2023-02-24T15:55:50.111Z,99283.28
2023-02-24T15:58:21.691Z,99288.50
2023-02-24T16:00:53.239Z,99287.44
2023-02-24T16:03:21.485Z,99288.03
2023-02-24T16:05:49.652Z,99283.94
2023-02-24T16:08:20.367Z,99272.22
2023-02-24T16:10:53.391Z,99268.94
2023-02-24T16:13:24.295Z,99272.50
2023-02-24T16:15:53.501Z,99276.97
2023-02-24T16:18:25.451Z,99273.56
2023-02-24T16:20:54.449Z,99273.19
2023-02-24T16:23:24.334Z,99267.72
2023-02-24T16:25:57.768Z,99268.56
2023-02-24T16:28:27.488Z,99264.47
2023-02-24T16:30:55.789Z,99272.25
2023-02-24T16:33:24.205Z,99254.66
2023-02-24T16:35:53.842Z,99253.25
2023-02-24T16:38:26.541Z,99250.25
2023-02-24T16:40:56.284Z,99247.78
2023-02-24T16:43:25.297Z,99239.78
2023-02-24T16:45:56.405Z,99244.03
2023-02-24T16:48:27.790Z,99242.94
2023-02-24T16:50:56.469Z,99246.50
2023-02-24T16:53:25.302Z,99241.72
2023-02-24T16:55:53.747Z,99236.63
2023-02-24T16:58:24.766Z,99229.47
2023-02-24T17:00:56.176Z,99224.69
2023-02-24T17:03:26.525Z,99220.34
2023-02-24T17:05:54.858Z,99214.47
2023-02-24T17:08:23.154Z,99211.25
2023-02-24T17:10:52.341Z,99209.59
2023-02-24T17:13:23.497Z,99216.16
2023-02-24T17:15:56.983Z,99216.78
2023-02-24T17:18:25.902Z,99208.44
2023-02-24T17:20:54.825Z,99208.16
2023-02-24T17:23:23.364Z,99202.13
2023-02-24T17:25:54.568Z,99198.28
2023-02-24T17:28:24.237Z,99199.28
2023-02-24T17:30:52.900Z,99199.59
2023-02-24T17:33:21.192Z,99195.81
2023-02-24T17:35:49.653Z,99193.22
2023-02-24T17:38:21.499Z,99180.88
2023-02-24T17:40:49.807Z,99181.19
2023-02-24T17:43:17.957Z,99177.25
2023-02-24T17:45:48.425Z,99176.72
2023-02-24T17:48:17.227Z,99172.66
2023-02-24T17:50:46.739Z,99174.81
2023-02-24T17:53:15.888Z,99166.06
2023-02-24T17:56:01.437Z,99156.59
2023-02-24T17:58:30.776Z,99155.91
2023-02-24T18:01:01.933Z,99163.63
2023-02-24T18:03:30.694Z,99164.03
2023-02-24T18:06:00.313Z,99156.59
2023-02-24T18:08:30.413Z,99149.75
2023-02-24T18:10:59.642Z,99148.50
2023-02-24T18:13:28.192Z,99145.13
2023-02-24T18:15:56.611Z,99133.94
2023-02-24T18:18:27.802Z,99147.66
2023-02-24T18:21:01.655Z,99134.63
2023-02-24T18:23:30.867Z,99131.75
2023-02-24T18:26:02.293Z,99125.84
2023-02-24T18:28:31.123Z,99124.50
2023-02-24T18:31:00.808Z,99126.19
2023-02-24T18:33:30.608Z,99124.34
2023-02-24T18:35:59.889Z,99131.59
2023-02-24T18:38:28.934Z,99129.09
2023-02-24T18:41:01.700Z,99123.91
2023-02-24T18:43:30.669Z,99117.66
2023-02-24T18:46:00.098Z,99109.31
2023-02-24T18:48:30.512Z,99108.66
2023-02-24T18:51:00.060Z,99105.78
2023-02-24T18:53:31.045Z,99109.28
2023-02-24T18:55:59.936Z,99100.88
2023-02-24T18:58:28.178Z,99100.94
2023-02-24T19:00:56.847Z,99100.53
2023-02-24T19:03:25.170Z,99091.72
2023-02-24T19:05:54.666Z,99082.19
2023-02-24T19:08:23.204Z,99089.03
2023-02-24T19:10:51.680Z,99088.53
2023-02-24T19:13:19.849Z,99090.47
2023-02-24T19:15:48.371Z,99083.28
2023-02-24T19:18:17.492Z,99076.19
2023-02-24T19:20:45.643Z,99080.75
2023-02-24T19:23:15.252Z,99078.63
2023-02-24T19:25:43.411Z,99073.47
2023-02-24T19:28:11.704Z,99066.56
2023-02-24T19:30:40.285Z,99064.88
2023-02-24T19:33:09.751Z,99058.94
2023-02-24T19:35:41.978Z,99050.84
2023-02-24T19:38:13.591Z,99055.75
2023-02-24T19:40:44.111Z,99046.94
2023-02-24T19:43:12.580Z,99043.41
2023-02-24T19:45:41.844Z,99040.69
2023-02-24T19:48:10.502Z,99031.91
2023-02-24T19:50:40.209Z,99038.66
2023-02-24T19:53:08.852Z,99038.16
2023-02-24T19:55:37.013Z,99040.19
2023-02-24T19:58:06.531Z,99028.66
2023-02-24T20:00:34.987Z,99028.25
2023-02-24T20:03:03.137Z,99022.28
2023-02-24T20:05:31.308Z,99024.03
2023-02-24T20:07:59.609Z,99024.13
2023-02-24T20:10:28.020Z,99020.22
2023-02-24T20:12:58.042Z,99008.41
2023-02-24T20:15:27.724Z,99014.63
2023-02-24T20:17:55.995Z,99003.94
2023-02-24T20:20:24.153Z,99003.03
2023-02-24T20:22:52.319Z,99006.69
2023-02-24T20:25:20.469Z,99001.44
2023-02-24T20:27:48.657Z,99003.56
2023-02-24T20:30:17.158Z,98992.56
2023-02-24T20:32:46.781Z,98993.09
2023-02-24T20:35:15.100Z,98997.31
2023-02-24T20:37:43.360Z,98990.47
2023-02-24T20:40:13.133Z,98985.78
2023-02-24T20:42:41.265Z,98982.00
2023-02-24T20:45:12.303Z,98982.53
2023-02-24T20:47:40.504Z,98987.22
2023-02-24T20:50:10.963Z,98982.47
2023-02-24T20:52:39.997Z,98983.84
2023-02-24T20:55:08.719Z,98986.69
2023-02-24T20:57:36.913Z,98984.91
2023-02-24T21:00:08.197Z,98987.44
2023-02-24T21:02:36.724Z,98979.38
2023-02-24T21:05:05.256Z,98978.06
2023-02-24T21:07:36.876Z,98979.38
2023-02-24T21:10:05.617Z,98975.09
2023-02-24T21:12:33.954Z,98971.72
2023-02-24T21:15:02.139Z,98962.94
2023-02-24T21:17:30.741Z,98963.19
2023-02-24T21:19:58.992Z,98966.22
2023-02-24T21:22:31.135Z,98960.31
2023-02-24T21:25:00.924Z,98958.19
2023-02-24T21:27:29.112Z,98958.66
2023-02-24T21:29:57.282Z,98952.28
2023-02-24T21:32:25.585Z,98945.53
2023-02-24T21:34:53.818Z,98941.47
2023-02-24T21:37:22.263Z,98931.88
2023-02-24T21:39:50.463Z,98934.34
2023-02-24T21:42:22.186Z,98922.44
2023-02-24T21:44:51.519Z,98921.72
2023-02-24T21:47:20.437Z,98927.13
2023-02-24T21:49:48.917Z,98923.84
2023-02-24T21:52:17.435Z,98921.97
2023-02-24T21:54:46.632Z,98914.22
2023-02-24T21:57:14.779Z,98912.16
2023-02-24T21:59:44.609Z,98915.81
2023-02-24T22:02:13.368Z,98908.34
2023-02-24T22:04:41.540Z,98907.38
2023-02-24T22:07:09.695Z,98902.97
2023-02-24T22:09:37.876Z,98905.88
2023-02-24T22:12:07.287Z,98895.22
2023-02-24T22:14:35.514Z,98895.50
2023-02-24T22:17:05.074Z,98882.69
2023-02-24T22:19:33.221Z,98881.19
2023-02-24T22:22:01.509Z,98888.88
2023-02-24T22:24:29.684Z,98879.13
2023-02-24T22:26:58.673Z,98883.91
2023-02-24T22:29:26.950Z,98872.56
2023-02-24T22:31:55.214Z,98870.34
2023-02-24T22:34:24.750Z,98870.41
2023-02-24T22:36:53.668Z,98860.59
2023-02-24T22:39:23.363Z,98867.59
2023-02-24T22:41:52.515Z,98867.78
2023-02-24T22:44:21.109Z,98865.25
2023-02-24T22:46:49.424Z,98868.06
2023-02-24T22:49:17.699Z,98864.69
2023-02-24T22:51:47.254Z,98861.53
2023-02-24T22:54:15.895Z,98866.19
2023-02-24T22:56:44.182Z,98862.75
2023-02-24T22:59:12.691Z,98853.31
2023-02-24T23:01:42.649Z,98857.31
2023-02-24T23:04:16.712Z,98859.25
2023-02-24T23:06:47.164Z,98850.88
2023-02-24T23:09:19.900Z,98849.16
2023-02-24T23:11:48.843Z,98846.19
2023-02-24T23:14:17.328Z,98842.81
2023-02-24T23:16:47.258Z,98848.03
2023-02-24T23:19:17.885Z,98841.84
2023-02-24T23:21:48.223Z,98843.72
2023-02-24T23:24:19.950Z,98832.59
2023-02-24T23:26:51.326Z,98836.81
2023-02-24T23:29:21.330Z,98843.56
2023-02-24T23:31:49.648Z,98838.66
2023-02-24T23:34:17.887Z,98835.03
2023-02-24T23:36:48.207Z,98835.41
2023-02-24T23:39:23.929Z,98835.66
2023-02-24T23:41:57.510Z,98826.69
2023-02-24T23:44:26.062Z,98825.84
2023-02-24T23:46:54.297Z,98821.81
2023-02-24T23:49:22.474Z,98814.69
2023-02-24T23:51:50.628Z,98809.53
2023-02-24T23:54:20.358Z,98810.75
2023-02-24T23:56:48.730Z,98807.66
2023-02-24T23:59:17.103Z,98794.16
